Time;durP1;ratioP1;P1;durP2;ratioP2;P2;SDS_P1;SDS_P2;PMS_P1;PMS_P2;Temp;Humidity;BMP_temperature;BMP_pressure;BME280_temperature;BME280_humidity;BME280_pressure;Samples;Min_cycle;Max_cycle;Signal;HPM_P1;HPM_P2
2022/01/26 00:00:54;;;;;;;1.17;1.17;;;;;;;7.04;56.25;103459.03;5037183;28;20046;-84
2022/01/26 00:06:07;;;;;;;0.88;0.88;;;;;;;7.04;56.28;103464.28;5018170;28;20397;-84
2022/01/26 00:08:38;;;;;;;0.73;0.73;;;;;;;7.06;56.00;103465.22;5028968;28;20030;-84
2022/01/26 00:11:04;;;;;;;0.30;0.30;;;;;;;7.04;55.63;103466.00;5028537;28;20435;-84
2022/01/26 00:13:30;;;;;;;0.90;0.90;;;;;;;7.06;55.89;103461.72;5023502;28;20038;-84
2022/01/26 00:16:00;;;;;;;0.30;0.30;;;;;;;7.06;56.61;103464.34;5029920;28;20034;-84
2022/01/26 00:18:31;;;;;;;0.10;0.10;;;;;;;7.04;56.91;103461.66;5027002;28;20091;-84
2022/01/26 00:21:05;;;;;;;4.47;1.75;;;;;;;7.06;56.69;103465.22;5025912;28;20022;-85
2022/01/26 00:24:24;;;;;;;1.55;1.45;;;;;;;7.07;57.14;103456.47;5027067;28;20029;-84
2022/01/26 00:26:31;;;;;;;6.43;1.08;;;;;;;7.09;56.86;103451.25;5025891;28;20428;-84
2022/01/26 00:29:08;;;;;;;3.95;1.27;;;;;;;7.10;57.26;103451.34;5023205;28;20033;-86
2022/01/26 00:40:06;;;;;;;4.28;4.03;;;;;;;7.08;57.07;103426.66;5026104;28;20042;-84
2022/01/26 00:42:37;;;;;;;1.10;1.10;;;;;;;7.08;56.86;103426.66;5029629;28;20030;-84
2022/01/26 00:45:05;;;;;;;1.08;1.02;;;;;;;7.07;57.15;103429.25;5029003;28;20026;-84
2022/01/26 00:47:32;;;;;;;0.75;0.75;;;;;;;7.07;57.25;103438.03;5026705;28;20543;-84
2022/01/26 00:50:03;;;;;;;1.05;1.05;;;;;;;7.05;57.00;103434.47;5032954;28;20121;-84
2022/01/26 00:52:39;;;;;;;1.00;1.00;;;;;;;7.05;57.01;103436.19;5014271;28;20037;-84
2022/01/26 00:55:08;;;;;;;0.30;0.30;;;;;;;7.06;57.31;103428.31;5029586;28;20026;-84
2022/01/26 00:57:35;;;;;;;8.48;2.67;;;;;;;7.05;57.17;103431.81;5025288;28;20048;-84
2022/01/26 01:00:04;;;;;;;1.30;1.25;;;;;;;7.07;57.36;103430.13;5022304;28;20030;-84
2022/01/26 01:02:32;;;;;;;0.30;0.30;;;;;;;7.08;57.73;103410.81;5025494;28;20026;-83
2022/01/26 01:05:01;;;;;;;0.10;0.10;;;;;;;7.05;57.60;103409.81;5028155;28;20030;-84
2022/01/26 01:07:32;;;;;;;0.50;0.50;;;;;;;7.06;57.57;103406.34;5023436;28;20045;-85
2022/01/26 01:09:59;;;;;;;0.95;0.95;;;;;;;7.05;57.55;103402.81;5012579;28;20018;-85
2022/01/26 01:12:25;;;;;;;0.68;0.68;;;;;;;7.00;57.30;103412.28;5011805;28;20060;-85
2022/01/26 01:14:52;;;;;;;0.10;0.10;;;;;;;7.00;57.26;103412.28;5014180;28;20030;-84
2022/01/26 01:17:24;;;;;;;0.28;0.28;;;;;;;7.01;57.32;103414.06;5014399;28;20044;-84
2022/01/26 01:20:09;;;;;;;0.25;0.25;;;;;;;7.02;57.86;103410.59;5013154;28;20393;-85
2022/01/26 01:22:51;;;;;;;3.25;0.95;;;;;;;7.00;58.00;103403.50;5010575;28;20485;-84
2022/01/26 01:30:56;;;;;;;0.30;0.30;;;;;;;6.95;58.17;103395.41;5006964;28;20528;-84
2022/01/26 01:33:30;;;;;;;0.20;0.20;;;;;;;6.95;58.69;103392.78;5014896;28;20030;-84
2022/01/26 01:35:58;;;;;;;7.70;1.70;;;;;;;6.94;58.29;103386.63;5008065;28;20417;-84
2022/01/26 01:38:27;;;;;;;1.23;0.77;;;;;;;6.91;58.48;103388.25;5013252;28;20033;-84
2022/01/26 01:40:54;;;;;;;2.30;2.20;;;;;;;6.90;58.35;103389.06;5015409;28;20057;-84
2022/01/26 01:43:23;;;;;;;1.67;1.60;;;;;;;6.89;58.49;103376.72;5010563;28;20026;-84
2022/01/26 01:45:52;;;;;;;0.85;0.85;;;;;;;6.86;58.52;103369.63;5014220;28;20049;-84
2022/01/26 01:48:26;;;;;;;1.40;1.40;;;;;;;6.85;58.59;103369.56;5014592;28;20488;-84
2022/01/26 01:50:54;;;;;;;0.20;0.20;;;;;;;6.81;58.46;103368.56;5014888;28;20038;-84
2022/01/26 01:53:33;;;;;;;4.15;2.58;;;;;;;6.84;58.27;103368.69;5013487;28;20026;-83
2022/01/26 01:56:00;;;;;;;1.00;1.00;;;;;;;6.82;58.31;103358.91;5014659;28;20128;-84
2022/01/26 01:58:27;;;;;;;0.25;0.25;;;;;;;6.82;58.46;103357.19;5012838;28;20037;-84
2022/01/26 02:00:53;;;;;;;1.80;1.65;;;;;;;6.80;58.58;103356.22;5015428;28;20089;-84
2022/01/26 02:03:20;;;;;;;6.22;1.05;;;;;;;6.77;58.93;103359.63;5013247;28;20034;-84
2022/01/26 02:05:46;;;;;;;1.02;1.02;;;;;;;6.80;58.98;103356.22;5008964;28;20034;-84
2022/01/26 02:08:12;;;;;;;0.20;0.20;;;;;;;6.71;59.09;103343.59;5004491;28;20022;-84
2022/01/26 02:10:39;;;;;;;2.53;2.38;;;;;;;6.72;58.73;103348.03;5014599;28;20434;-85
2022/01/26 02:13:17;;;;;;;1.20;1.20;;;;;;;6.72;59.05;103342.78;5021612;28;20041;-84
2022/01/26 02:15:52;;;;;;;1.38;0.93;;;;;;;6.72;59.05;103347.16;5016021;28;20038;-84
2022/01/26 02:18:34;;;;;;;1.67;1.55;;;;;;;6.73;59.05;103357.75;5014934;28;20117;-85
2022/01/26 02:21:17;;;;;;;2.33;1.50;;;;;;;6.74;59.26;103356.91;4998760;28;20057;-85
2022/01/26 02:49:36;;;;;;;1.15;1.13;;;;;;;6.60;59.33;103337.06;5011975;28;20172;-84
2022/01/26 03:00:29;;;;;;;0.95;0.95;;;;;;;6.58;59.77;103334.38;5035041;28;20813;-84
2022/01/26 03:02:47;;;;;;;0.22;0.22;;;;;;;6.60;59.45;103337.97;5003803;28;20038;-84
2022/01/26 03:05:15;;;;;;;0.15;0.15;;;;;;;6.60;59.71;103332.69;5009719;28;20092;-83
2022/01/26 03:07:50;;;;;;;1.25;1.25;;;;;;;6.58;59.90;103308.03;4997356;28;20490;-84
2022/01/26 03:10:23;;;;;;;1.45;1.35;;;;;;;6.57;59.81;103316.75;5001018;28;20034;-84
2022/01/26 03:12:55;;;;;;;0.10;0.10;;;;;;;6.55;60.28;103301.75;5004337;28;20030;-84
2022/01/26 03:15:29;;;;;;;0.98;0.93;;;;;;;6.54;60.29;103285.06;5004269;28;20478;-84
2022/01/26 03:20:44;;;;;;;0.10;0.10;;;;;;;6.41;60.31;103282.81;5005106;28;20038;-84
2022/01/26 03:28:57;;;;;;;0.30;0.30;;;;;;;6.36;60.45;103289.66;4995592;28;20044;-84
2022/01/26 03:34:11;;;;;;;1.00;1.00;;;;;;;6.37;60.42;103308.13;5072256;28;20403;-85
2022/01/26 03:36:57;;;;;;;0.10;0.10;;;;;;;6.42;60.09;103311.84;5053695;28;20478;-85
2022/01/26 03:39:25;;;;;;;2.45;1.90;;;;;;;6.41;60.04;103294.22;5051453;28;20033;-84
2022/01/26 03:42:04;;;;;;;2.67;1.10;;;;;;;6.50;59.87;103300.69;5052571;28;20060;-84
2022/01/26 03:44:32;;;;;;;6.55;1.77;;;;;;;6.41;59.69;103294.22;5063475;28;20409;-84
2022/01/26 03:46:58;;;;;;;0.17;0.17;;;;;;;6.46;59.86;103287.41;5059635;28;20496;-85
2022/01/26 03:49:25;;;;;;;0.82;0.82;;;;;;;6.50;59.70;103298.06;5062786;28;20467;-91
2022/01/26 03:51:51;;;;;;;0.82;0.82;;;;;;;6.51;59.96;103294.59;5038392;28;20026;-92
2022/01/26 03:54:19;;;;;;;0.73;0.73;;;;;;;6.53;59.70;103283.25;5060289;28;20036;-85
2022/01/26 03:56:45;;;;;;;3.75;3.55;;;;;;;6.47;59.84;103283.91;5045936;28;20061;-86
2022/01/26 03:59:12;;;;;;;14.90;2.17;;;;;;;6.42;59.72;103288.13;5059714;28;20029;-85
2022/01/26 04:01:39;;;;;;;0.30;0.30;;;;;;;6.43;59.55;103303.09;5042440;28;20032;-89
2022/01/26 04:04:06;;;;;;;0.10;0.10;;;;;;;6.46;59.32;103319.00;5049844;28;20080;-84
2022/01/26 04:06:34;;;;;;;0.68;0.68;;;;;;;6.46;59.36;103324.25;5050912;28;20404;-85
2022/01/26 04:09:01;;;;;;;1.08;1.08;;;;;;;6.37;59.51;103333.56;5034218;28;20033;-84
2022/01/26 04:14:14;;;;;;;0.50;0.50;;;;;;;6.41;59.83;103346.91;5064812;27;20859;-84
2022/01/26 04:16:42;;;;;;;0.73;0.73;;;;;;;6.38;60.10;103338.91;5066947;28;20475;-85
2022/01/26 04:19:09;;;;;;;2.17;1.17;;;;;;;6.37;59.72;103334.47;5067754;27;20429;-84
2022/01/26 04:22:03;;;;;;;0.30;0.30;;;;;;;6.34;60.01;103347.50;5061784;28;20452;-85
2022/01/26 04:24:28;;;;;;;1.40;1.40;;;;;;;6.37;60.03;103339.75;5058740;28;20041;-85
2022/01/26 04:27:01;;;;;;;1.67;1.65;;;;;;;6.30;60.22;103364.03;5066177;28;20112;-84
2022/01/26 04:29:30;;;;;;;1.13;1.13;;;;;;;6.36;60.00;103360.75;5065628;28;20120;-85
2022/01/26 04:31:59;;;;;;;0.15;0.15;;;;;;;6.38;59.99;103356.41;5066038;28;20061;-84
2022/01/26 04:34:26;;;;;;;0.10;0.10;;;;;;;6.41;60.17;103346.91;5065887;27;20498;-85
2022/01/26 04:36:58;;;;;;;1.92;1.75;;;;;;;6.37;60.67;103313.41;5066161;27;20036;-85
2022/01/26 04:39:30;;;;;;;3.25;0.90;;;;;;;6.31;61.07;103302.63;5065758;28;20029;-84
2022/01/26 04:42:03;;;;;;;6.80;2.65;;;;;;;6.37;60.83;103296.69;5065977;28;20044;-84
2022/01/26 04:44:36;;;;;;;1.77;1.67;;;;;;;6.36;61.10;103295.81;5058661;28;20480;-85
2022/01/26 04:47:03;;;;;;;1.05;1.05;;;;;;;6.35;60.89;103278.22;5062557;28;20062;-86
2022/01/26 04:49:29;;;;;;;0.77;0.77;;;;;;;6.36;60.90;103282.63;5065791;28;20483;-85
2022/01/26 04:51:55;;;;;;;3.53;1.77;;;;;;;6.26;62.09;103298.94;5065841;27;20025;-85
2022/01/26 04:54:31;;;;;;;4.22;3.83;;;;;;;6.38;61.59;103315.19;5065288;27;20034;-84
2022/01/26 04:57:07;;;;;;;1.95;1.85;;;;;;;6.37;61.61;103307.22;5066058;28;20144;-84
2022/01/26 04:59:44;;;;;;;0.65;0.65;;;;;;;6.35;61.50;103294.00;5058624;28;20364;-84
2022/01/26 05:02:19;;;;;;;1.55;1.45;;;;;;;6.29;62.07;103296.41;5066270;28;20060;-84
2022/01/26 05:04:45;;;;;;;0.65;0.65;;;;;;;6.26;62.39;103296.31;5063193;28;20032;-84
2022/01/26 05:07:11;;;;;;;2.70;2.53;;;;;;;6.32;61.69;103299.19;5065720;27;20383;-84
2022/01/26 05:09:37;;;;;;;2.53;2.33;;;;;;;6.29;62.40;103299.03;5065779;28;20029;-84
2022/01/26 05:12:04;;;;;;;0.20;0.20;;;;;;;6.20;63.20;103290.81;5065321;27;20425;-85
2022/01/26 05:14:30;;;;;;;0.57;0.57;;;;;;;6.27;62.16;103280.56;5065712;28;20033;-84
2022/01/26 05:16:56;;;;;;;2.83;2.28;;;;;;;6.24;62.79;103282.19;5064708;28;20090;-84
2022/01/26 05:19:22;;;;;;;2.92;2.78;;;;;;;6.21;62.79;103285.59;5062286;28;20036;-84
2022/01/26 05:21:49;;;;;;;5.28;1.85;;;;;;;6.24;62.75;103272.56;5062015;28;20028;-84
2022/01/26 05:24:15;;;;;;;0.30;0.30;;;;;;;6.23;63.18;103272.47;5058348;28;20096;-84
2022/01/26 05:26:41;;;;;;;3.05;2.85;;;;;;;6.23;63.33;103272.47;5051756;28;20062;-84
2022/01/26 05:29:07;;;;;;;1.23;1.23;;;;;;;6.29;63.25;103278.91;5051066;28;20052;-85
2022/01/26 05:31:34;;;;;;;0.20;0.20;;;;;;;6.20;63.59;103267.13;5052089;28;20500;-85
2022/01/26 05:34:00;;;;;;;0.20;0.20;;;;;;;6.25;63.60;103261.16;5051514;28;20472;-85
2022/01/26 05:36:26;;;;;;;3.95;3.20;;;;;;;6.27;63.76;103271.78;5051632;28;20040;-84
2022/01/26 05:38:52;;;;;;;4.60;2.42;;;;;;;6.27;63.99;103258.63;5051285;28;20328;-84
2022/01/26 05:41:19;;;;;;;3.55;1.52;;;;;;;6.31;63.54;103249.97;5051611;28;20056;-85
2022/01/26 05:43:45;;;;;;;0.35;0.35;;;;;;;6.35;63.92;103262.41;5051885;28;20105;-85
2022/01/26 05:46:17;;;;;;;3.50;0.93;;;;;;;6.40;63.31;103263.47;5051462;28;20028;-85
2022/01/26 05:48:45;;;;;;;0.17;0.17;;;;;;;6.33;63.54;103274.63;5051741;28;20033;-85
2022/01/26 05:51:12;;;;;;;0.70;0.70;;;;;;;6.43;62.91;103275.84;5051201;28;20365;-85
2022/01/26 05:53:40;;;;;;;2.05;1.95;;;;;;;6.38;63.38;103264.25;5051723;28;20119;-85
2022/01/26 05:56:07;;;;;;;0.32;0.32;;;;;;;6.40;63.61;103268.72;5051068;27;20063;-84
2022/01/26 05:58:33;;;;;;;1.00;1.00;;;;;;;6.39;63.59;103266.97;5051705;28;20467;-84
2022/01/26 06:01:00;;;;;;;0.20;0.20;;;;;;;6.43;63.81;103268.88;5051155;27;20063;-85
2022/01/26 06:03:36;;;;;;;0.75;0.75;;;;;;;6.48;63.80;103283.09;5094451;27;20040;-85
2022/01/26 06:06:02;;;;;;;0.93;0.85;;;;;;;6.52;63.17;103301.63;5040544;28;20120;-86
2022/01/26 06:08:36;;;;;;;0.10;0.10;;;;;;;6.45;63.32;103311.03;5052176;28;20068;-85
2022/01/26 06:11:04;;;;;;;4.50;1.42;;;;;;;6.36;63.03;103308.97;5057901;27;20490;-85
2022/01/26 06:13:30;;;;;;;3.67;1.17;;;;;;;6.32;62.69;103305.31;5039691;28;20029;-85
2022/01/26 06:15:56;;;;;;;0.47;0.47;;;;;;;6.43;62.34;103302.19;5048032;28;20120;-85
2022/01/26 06:18:23;;;;;;;0.10;0.10;;;;;;;6.40;62.04;103297.69;5050313;28;20067;-83
2022/01/26 06:20:49;;;;;;;1.80;1.70;;;;;;;6.36;62.16;103287.03;5039189;28;20048;-85
2022/01/26 06:23:16;;;;;;;3.08;2.90;;;;;;;6.40;62.27;103286.28;5057108;27;20487;-86
2022/01/26 06:25:42;;;;;;;10.93;1.95;;;;;;;6.38;62.06;103257.28;5051610;27;20019;-85
2022/01/26 06:28:12;;;;;;;0.20;0.20;;;;;;;6.31;61.90;103271.94;5042101;28;20056;-82
2022/01/26 06:30:39;;;;;;;0.17;0.17;;;;;;;6.45;62.03;103256.63;5045004;28;20087;-86
2022/01/26 06:33:07;;;;;;;12.77;3.05;;;;;;;6.41;61.90;103248.59;5043077;28;20052;-85
2022/01/26 06:35:35;;;;;;;2.97;2.78;;;;;;;6.44;61.77;103252.22;5056251;27;20074;-85
2022/01/26 06:38:02;;;;;;;0.73;0.73;;;;;;;6.38;62.02;103259.91;5048142;28;20044;-85
2022/01/26 06:40:28;;;;;;;1.50;1.40;;;;;;;6.43;62.07;103260.97;5048334;28;20033;-85
2022/01/26 06:42:59;;;;;;;0.50;0.50;;;;;;;6.41;62.08;103267.00;5048708;28;20884;-85
2022/01/26 06:45:33;;;;;;;0.70;0.70;;;;;;;6.41;61.78;103251.22;5046439;28;20029;-85
2022/01/26 06:50:45;;;;;;;4.47;1.75;;;;;;;6.20;61.40;103273.28;5045564;28;20036;-83
2022/01/26 06:53:13;;;;;;;0.82;0.82;;;;;;;6.31;61.25;103297.38;5049074;28;20372;-84
2022/01/26 06:55:40;;;;;;;1.40;1.33;;;;;;;6.25;60.97;103313.81;5046266;27;20533;-85
2022/01/26 06:58:06;;;;;;;0.52;0.52;;;;;;;6.18;61.03;103305.66;5042763;28;20025;-86
2022/01/26 07:00:33;;;;;;;4.20;3.38;;;;;;;6.22;60.91;103307.53;5046182;28;20400;-86
2022/01/26 07:02:59;;;;;;;2.60;1.23;;;;;;;6.28;60.71;103306.06;5049054;28;20040;-86
2022/01/26 07:05:25;;;;;;;0.30;0.30;;;;;;;6.32;60.80;103296.53;5049425;28;20047;-86
2022/01/26 07:07:51;;;;;;;2.22;2.13;;;;;;;6.31;60.84;103297.38;5045052;28;20025;-85
2022/01/26 07:10:18;;;;;;;2.72;1.20;;;;;;;6.41;60.60;103288.09;5047218;27;20120;-85
2022/01/26 07:12:44;;;;;;;0.30;0.30;;;;;;;6.35;60.66;103296.63;5047361;28;20502;-86
2022/01/26 07:23:40;;;;;;;0.50;0.50;;;;;;;6.46;60.58;103308.47;5042517;27;20511;-86
2022/01/26 07:26:06;;;;;;;1.45;1.35;;;;;;;6.50;60.47;103327.03;5047291;27;20085;-85
2022/01/26 07:28:36;;;;;;;0.30;0.30;;;;;;;6.51;60.67;103328.81;5048852;27;20074;-85
2022/01/26 07:31:03;;;;;;;0.10;0.10;;;;;;;6.52;60.23;103333.22;5048250;28;20082;-86
2022/01/26 07:33:30;;;;;;;1.13;1.13;;;;;;;6.52;60.47;103343.75;5047151;28;20505;-84
2022/01/26 07:35:57;;;;;;;0.70;0.70;;;;;;;6.45;60.87;103333.00;5047466;28;20036;-85
2022/01/26 07:38:23;;;;;;;0.43;0.43;;;;;;;6.47;60.92;103331.34;5048472;28;20040;-87
2022/01/26 07:40:49;;;;;;;3.92;1.95;;;;;;;6.47;60.88;103336.59;5048662;28;20029;-84
2022/01/26 07:43:15;;;;;;;0.60;0.60;;;;;;;6.50;60.64;103330.53;5039064;28;20092;-85
2022/01/26 07:45:42;;;;;;;0.30;0.30;;;;;;;6.39;60.78;103332.81;5048954;28;20089;-85
2022/01/26 07:48:08;;;;;;;0.50;0.50;;;;;;;6.45;60.78;103330.38;5049862;28;20097;-85
2022/01/26 07:50:34;;;;;;;0.13;0.13;;;;;;;6.39;60.92;103335.44;5049689;28;20176;-86
2022/01/26 07:53:02;;;;;;;0.63;0.63;;;;;;;6.46;60.61;103334.81;5047742;28;20099;-85
2022/01/26 07:55:32;;;;;;;1.92;1.83;;;;;;;6.53;60.65;103329.75;5048434;28;20078;-90
2022/01/26 07:57:58;;;;;;;0.20;0.20;;;;;;;6.61;60.67;103329.19;5049385;27;20101;-84
2022/01/26 08:00:24;;;;;;;0.35;0.35;;;;;;;6.64;60.65;103321.41;5048927;28;20120;-84
2022/01/26 08:02:51;;;;;;;1.60;1.23;;;;;;;6.70;60.19;103319.84;5042566;28;20029;-83
2022/01/26 08:05:17;;;;;;;4.57;0.75;;;;;;;6.67;60.56;103317.09;5042467;27;20033;-85
2022/01/26 08:07:44;;;;;;;0.75;0.75;;;;;;;6.69;60.28;103313.69;5043471;28;20029;-83
2022/01/26 08:10:11;;;;;;;15.35;2.28;;;;;;;6.69;60.13;103315.41;5041694;28;20037;-83
2022/01/26 08:12:39;;;;;;;0.10;0.10;;;;;;;6.73;59.97;103315.59;5048544;28;20041;-86
2022/01/26 08:15:07;;;;;;;0.15;0.15;;;;;;;6.68;60.34;103318.88;5043257;28;20063;-86
2022/01/26 08:17:34;;;;;;;2.08;1.45;;;;;;;6.72;60.28;103315.53;5047364;28;20040;-86
2022/01/26 08:20:03;;;;;;;0.30;0.30;;;;;;;6.77;60.41;103311.31;5040465;28;20109;-82
2022/01/26 08:22:30;;;;;;;1.70;1.60;;;;;;;6.77;60.21;103314.84;5044981;28;20025;-82
2022/01/26 08:24:56;;;;;;;4.97;4.68;;;;;;;6.80;60.33;103312.34;5046428;28;20383;-84
2022/01/26 08:27:25;;;;;;;1.60;1.50;;;;;;;6.79;60.78;103318.44;5048620;27;20073;-83
2022/01/26 08:29:57;;;;;;;0.95;0.95;;;;;;;6.80;60.47;103299.16;5049298;28;20464;-84
2022/01/26 08:32:23;;;;;;;0.82;0.82;;;;;;;6.83;60.28;103303.63;5047724;28;20064;-83
2022/01/26 08:34:49;;;;;;;0.10;0.10;;;;;;;6.89;60.07;103302.94;5046823;28;20070;-84
2022/01/26 08:37:15;;;;;;;0.17;0.17;;;;;;;6.90;60.16;103300.38;5038875;28;20036;-83
2022/01/26 08:39:42;;;;;;;0.17;0.17;;;;;;;6.93;60.20;103304.88;5039887;28;20550;-82
2022/01/26 08:42:08;;;;;;;0.15;0.15;;;;;;;6.88;60.19;103309.97;5042848;28;20049;-86
2022/01/26 08:44:36;;;;;;;1.08;1.08;;;;;;;6.82;59.98;103300.94;5042301;28;20278;-85
2022/01/26 08:47:04;;;;;;;0.45;0.45;;;;;;;6.89;60.04;103303.84;5037941;27;20030;-84
2022/01/26 08:49:31;;;;;;;0.30;0.30;;;;;;;6.93;60.18;103305.75;5036131;28;20046;-86
2022/01/26 08:51:58;;;;;;;3.85;3.00;;;;;;;6.88;60.26;103314.31;5044648;28;20487;-86
2022/01/26 08:54:25;;;;;;;0.10;0.10;;;;;;;6.89;60.24;103318.75;5039781;28;20025;-86
2022/01/26 08:56:53;;;;;;;1.05;1.05;;;;;;;6.92;60.26;103321.50;5044698;28;20045;-86
2022/01/26 08:59:22;;;;;;;1.33;1.27;;;;;;;6.90;60.60;103310.94;5039481;28;20052;-86
2022/01/26 09:01:49;;;;;;;0.90;0.90;;;;;;;6.94;60.30;103309.25;5043284;27;20037;-85
2022/01/26 09:04:16;;;;;;;0.85;0.85;;;;;;;7.01;60.35;103308.63;5047808;28;20588;-86
2022/01/26 09:06:52;;;;;;;2.20;1.13;;;;;;;7.00;60.65;103309.47;5038988;28;20036;-87
2022/01/26 09:09:20;;;;;;;1.75;1.65;;;;;;;7.05;60.18;103321.09;5047634;28;20036;-86
2022/01/26 09:11:48;;;;;;;3.13;2.80;;;;;;;7.06;60.71;103317.59;5047443;28;20209;-88
2022/01/26 09:14:19;;;;;;;5.10;1.15;;;;;;;7.06;60.93;103317.59;5055054;28;20037;-89
2022/01/26 09:16:47;;;;;;;0.10;0.10;;;;;;;7.03;60.73;103312.22;5037408;28;20483;-87
2022/01/26 09:19:26;;;;;;;0.13;0.13;;;;;;;6.97;60.76;103314.66;5046600;27;20080;-92
2022/01/26 09:21:54;;;;;;;0.38;0.38;;;;;;;7.03;60.73;103306.03;5043176;28;20040;-94
2022/01/26 09:24:21;;;;;;;0.10;0.10;;;;;;;7.03;61.23;103304.31;5047207;27;20029;-91
2022/01/26 09:26:49;;;;;;;0.40;0.40;;;;;;;7.07;61.07;103306.22;5049844;28;20360;-88
2022/01/26 09:29:15;;;;;;;0.25;0.25;;;;;;;7.16;60.99;103317.94;5054129;28;20029;-87
2022/01/26 09:31:58;;;;;;;0.10;0.10;;;;;;;7.20;60.53;103319.81;5051030;28;20032;-89
2022/01/26 09:34:29;;;;;;;0.73;0.73;;;;;;;7.22;60.95;103313.75;5054650;27;20356;-83
2022/01/26 09:36:56;;;;;;;1.45;1.17;;;;;;;7.28;60.88;103308.69;5051757;27;20025;-90
2022/01/26 09:39:23;;;;;;;0.82;0.82;;;;;;;7.25;61.05;103297.13;5051012;28;20046;-89
2022/01/26 09:41:51;;;;;;;2.28;2.17;;;;;;;7.21;61.20;103292.59;5052276;27;20025;-90
2022/01/26 09:44:18;;;;;;;0.98;0.98;;;;;;;7.28;60.99;103303.41;5052727;28;20044;-90
2022/01/26 09:46:52;;;;;;;0.10;0.10;;;;;;;7.27;61.06;103308.63;5051761;28;20042;-93
2022/01/26 09:49:19;;;;;;;3.20;1.95;;;;;;;7.30;61.11;103319.28;5050679;28;20033;-87
2022/01/26 09:51:56;;;;;;;0.10;0.10;;;;;;;7.40;60.83;103323.13;5051370;28;20379;-90
2022/01/26 09:54:30;;;;;;;0.30;0.30;;;;;;;7.41;61.21;103330.19;5052338;28;20037;-92
2022/01/26 09:57:03;;;;;;;0.35;0.35;;;;;;;7.41;60.76;103320.56;5046905;28;20029;-88
2022/01/26 09:59:30;;;;;;;;;;;;;;;7.57;60.32;103311.38;5053283;28;20033;-85
2022/01/26 10:01:56;;;;;;;0.73;0.73;;;;;;;7.45;60.94;103305.69;5052427;28;19917;-88
2022/01/26 10:07:08;;;;;;;0.30;0.30;;;;;;;7.43;60.70;103304.78;5085959;27;20475;-84
2022/01/26 10:15:34;;;;;;;1.15;1.05;;;;;;;7.70;60.00;103312.69;5063668;28;20073;-91
2022/01/26 10:21:08;;;;;;;1.33;1.33;;;;;;;7.83;60.03;103321.00;5112243;27;20400;-88
2022/01/26 10:23:38;;;;;;;6.55;1.13;;;;;;;7.78;59.53;103324.34;5084964;28;20028;-89
2022/01/26 10:26:14;;;;;;;0.93;0.93;;;;;;;7.80;59.34;103316.50;5087534;28;20042;-92
2022/01/26 10:29:02;;;;;;;0.10;0.10;;;;;;;7.81;59.65;103325.31;5102306;28;20025;-90
2022/01/26 10:35:44;;;;;;;0.28;0.28;;;;;;;8.02;58.99;103309.25;5057803;27;20432;-93
2022/01/26 10:37:55;;;;;;;2.00;1.17;;;;;;;7.97;59.12;103331.97;5047867;28;20378;-90
2022/01/26 10:40:26;;;;;;;0.57;0.57;;;;;;;8.01;58.86;103329.47;5056160;28;20081;-94
2022/01/26 10:42:56;;;;;;;0.10;0.10;;;;;;;7.96;58.94;103327.53;5045038;28;20037;-92
2022/01/26 10:46:01;;;;;;;0.30;0.30;;;;;;;8.17;59.36;103309.69;5049792;28;20056;-93
2022/01/26 10:48:39;;;;;;;0.22;0.22;;;;;;;8.16;59.07;103312.28;5046440;28;20070;-94
2022/01/26 10:54:23;;;;;;;0.90;0.90;;;;;;;8.28;58.41;103299.44;5058424;28;20981;-93
2022/01/26 10:56:51;;;;;;;6.32;1.00;;;;;;;8.32;59.01;103305.72;5032215;28;20049;-90
2022/01/26 10:59:17;;;;;;;0.30;0.30;;;;;;;8.22;58.90;103297.53;5032210;28;20030;-88
2022/01/26 11:01:44;;;;;;;0.25;0.25;;;;;;;8.31;58.38;103296.00;5032622;28;20396;-91
2022/01/26 11:04:10;;;;;;;0.50;0.50;;;;;;;8.36;58.75;103291.72;5029142;28;20026;-88
2022/01/26 11:06:40;;;;;;;1.50;1.48;;;;;;;8.29;58.62;103289.75;5027148;28;20389;-90
2022/01/26 11:09:15;;;;;;;0.40;0.40;;;;;;;8.35;58.56;103282.94;5026158;28;20468;-89
2022/01/26 11:11:42;;;;;;;0.28;0.28;;;;;;;8.30;58.17;103273.06;5015941;28;20056;-91
2022/01/26 11:14:21;;;;;;;2.30;1.08;;;;;;;8.48;58.37;103264.81;5010967;28;20030;-87
2022/01/26 11:16:53;;;;;;;0.90;0.90;;;;;;;8.52;58.07;103267.59;5011341;28;20034;-89
2022/01/26 11:19:20;;;;;;;0.10;0.10;;;;;;;8.52;58.17;103271.97;5011123;28;20508;-88
2022/01/26 11:21:46;;;;;;;0.05;0.05;;;;;;;8.62;57.92;103276.63;5017360;28;20543;-80
2022/01/26 11:24:27;;;;;;;0.30;0.30;;;;;;;8.78;57.83;103285.00;5029536;28;20049;-90
2022/01/26 11:27:21;;;;;;;0.28;0.28;;;;;;;8.83;57.29;103273.69;5023256;28;20022;-92
2022/01/26 11:29:53;;;;;;;0.20;0.20;;;;;;;8.81;57.46;103271.84;5025622;28;20029;-93
2022/01/26 11:32:29;;;;;;;0.43;0.43;;;;;;;8.90;57.76;103266.81;5027137;28;20161;-91
2022/01/26 11:34:56;;;;;;;0.52;0.52;;;;;;;8.86;57.30;103268.50;5023543;28;20460;-86
2022/01/26 11:37:35;;;;;;;0.35;0.35;;;;;;;8.95;57.07;103273.13;5022672;28;20077;-86
2022/01/26 11:45:37;;;;;;;0.10;0.10;;;;;;;9.01;57.16;103261.78;5054509;28;20431;-85
2022/01/26 11:48:24;;;;;;;1.52;1.50;;;;;;;9.16;56.58;103258.63;5032806;28;20033;-84
2022/01/26 11:51:06;;;;;;;0.15;0.15;;;;;;;9.23;57.12;103244.72;5034408;28;20057;-85
2022/01/26 11:53:33;;;;;;;0.20;0.20;;;;;;;9.08;57.01;103247.88;5025738;28;20376;-85
2022/01/26 11:56:10;;;;;;;0.82;0.63;;;;;;;9.21;56.67;103249.09;5022709;28;20038;-85
2022/01/26 12:01:28;;;;;;;0.63;0.50;;;;;;;9.29;56.31;103255.44;5067581;28;20411;-84
2022/01/26 12:06:46;;;;;;;2.05;1.58;;;;;;;9.31;56.25;103253.75;5056006;28;20414;-85
2022/01/26 12:09:13;;;;;;;1.17;1.17;;;;;;;9.30;56.26;103251.94;5047519;28;20116;-85
2022/01/26 12:11:40;;;;;;;0.47;0.47;;;;;;;9.32;56.43;103260.81;5049451;28;20148;-85
2022/01/26 12:14:11;;;;;;;1.08;0.95;;;;;;;9.36;56.18;103267.97;5049017;28;20123;-85
2022/01/26 12:16:42;;;;;;;0.10;0.10;;;;;;;9.44;56.26;103259.31;5048397;28;20033;-85
2022/01/26 12:19:24;;;;;;;1.38;1.38;;;;;;;9.44;56.20;103256.69;5044661;28;20037;-86
2022/01/26 12:34:02;;;;;;;0.10;0.10;;;;;;;9.68;55.76;103245.75;5039552;22;20073;-89
2022/01/26 12:36:48;;;;;;;1.15;1.00;;;;;;;9.60;55.65;103240.28;5011896;28;20132;-93
2022/01/26 12:39:17;;;;;;;0.20;0.20;;;;;;;9.58;55.93;103228.75;5038385;28;20068;-94
2022/01/26 12:41:52;;;;;;;0.03;0.03;;;;;;;9.64;55.83;103230.66;5037121;28;20461;-87
2022/01/26 12:44:19;;;;;;;0.08;0.08;;;;;;;9.64;55.74;103226.25;5027696;28;20393;-92
2022/01/26 12:46:45;;;;;;;0.10;0.10;;;;;;;9.62;55.91;103233.28;5037857;28;20041;-94
2022/01/26 12:49:17;;;;;;;1.92;0.95;;;;;;;9.56;56.08;103222.56;5050211;28;20064;-93
2022/01/26 12:51:50;;;;;;;0.30;0.30;;;;;;;9.46;55.60;103215.25;5034822;28;20073;-93
2022/01/26 12:54:18;;;;;;;0.82;0.82;;;;;;;9.52;55.82;103220.69;5035450;28;20029;-93
2022/01/26 12:56:44;;;;;;;0.10;0.10;;;;;;;9.55;55.65;103229.59;5027747;28;20029;-84
2022/01/26 12:59:21;;;;;;;0.00;0.00;;;;;;;9.53;55.85;103225.13;5028226;28;20065;-94
2022/01/26 13:01:52;;;;;;;0.00;0.00;;;;;;;9.53;56.03;103217.19;5032633;28;20038;-89
2022/01/26 13:04:18;;;;;;;0.40;0.40;;;;;;;9.57;55.83;103218.16;5038236;28;20032;-88
2022/01/26 13:06:51;;;;;;;41.00;2.17;;;;;;;9.52;56.27;103215.38;5041247;28;20034;-93
2022/01/26 13:11:57;;;;;;;0.10;0.10;;;;;;;9.50;55.66;103212.72;4678327;27;11317299;-94
2022/01/26 13:14:30;;;;;;;0.55;0.55;;;;;;;9.51;56.30;103205.69;5070824;28;20029;-93
2022/01/26 13:23:20;;;;;;;1.85;1.75;;;;;;;9.45;56.46;103202.91;5064809;27;20483;-89
2022/01/26 13:25:57;;;;;;;0.85;0.85;;;;;;;9.61;56.31;103201.47;5063152;28;20569;-93
2022/01/26 13:34:36;;;;;;;0.10;0.10;;;;;;;9.43;56.74;103197.56;5060829;27;20411;-92
2022/01/26 13:37:08;;;;;;;0.20;0.20;;;;;;;9.35;56.62;103197.38;5055517;28;20499;-93
2022/01/26 13:42:49;;;;;;;0.20;0.20;;;;;;;9.38;57.08;103180.69;5042764;27;20458;-87
2022/01/26 13:48:15;;;;;;;0.10;0.10;;;;;;;9.41;56.91;103190.44;5028404;28;20044;-86
2022/01/26 13:50:42;;;;;;;0.10;0.10;;;;;;;9.45;56.76;103187.03;5029841;28;20033;-91
2022/01/26 13:53:17;;;;;;;3.10;1.00;;;;;;;9.43;57.07;103188.72;5029907;28;20024;-93
2022/01/26 13:55:58;;;;;;;3.60;1.55;;;;;;;9.39;57.20;103190.41;5019293;28;20030;-93
2022/01/26 14:01:19;;;;;;;0.98;0.98;;;;;;;9.30;56.96;103201.69;5065909;22;20459;-84
2022/01/26 14:03:48;;;;;;;0.47;0.47;;;;;;;9.39;57.10;103193.97;5052732;28;20124;-85
2022/01/26 14:06:15;;;;;;;1.25;1.05;;;;;;;9.36;57.02;103182.41;5047198;28;20029;-84
2022/01/26 14:08:41;;;;;;;0.10;0.10;;;;;;;9.42;56.82;103192.22;5055666;28;20465;-84